Time;durP1;ratioP1;P1;durP2;ratioP2;P2;SDS_P1;SDS_P2;PMS_P1;PMS_P2;Temp;Humidity;BMP_temperature;BMP_pressure;BME280_temperature;BME280_humidity;BME280_pressure;Samples;Min_cycle;Max_cycle;Signal;HPM_P1;HPM_P2
2023/01/31 00:00:16;;;;;;;;;;;;;;;;;;4979851;28;19949;-80
2023/01/31 00:02:42;;;;;;;;;;;;;;;;;;4991031;28;20055;-80
2023/01/31 00:05:08;;;;;;;;;;;;;;;;;;5006641;28;19922;-82
2023/01/31 00:07:34;;;;;;;;;;;;;;;;;;4996414;28;19921;-80
2023/01/31 00:10:00;;;;;;;;;;;;;;;;;;4999068;28;19925;-79
2023/01/31 00:12:26;;;;;;;;;;;;;;;;;;4984358;28;19983;-80
2023/01/31 00:14:52;;;;;;;;;;;;;;;;;;4992197;28;19940;-82
2023/01/31 00:17:18;;;;;;;;;;;;;;;;;;4983538;28;19932;-81
2023/01/31 00:19:44;;;;;;;;;;;;;;;;;;4990372;28;19917;-82
2023/01/31 00:22:10;;;;;;;;;;;;;;;;;;5006071;28;20474;-81
2023/01/31 00:24:36;;;;;;;;;;;;;;;;;;5004464;28;20015;-82
2023/01/31 00:27:01;;;;;;;;;;;;;;;;;;4963279;28;20060;-80
2023/01/31 00:29:27;;;;;;;;;;;;;;;;;;5001619;28;19951;-81
2023/01/31 00:31:54;;;;;;;;;;;;;;;;;;5007883;28;19933;-80
2023/01/31 00:34:20;;;;;;;;;;;;;;;;;;4973754;28;19991;-80
2023/01/31 00:36:46;;;;;;;;;;;;;;;;;;5010596;28;20390;-83
2023/01/31 00:39:12;;;;;;;;;;;;;;;;;;4988092;28;19925;-80
2023/01/31 00:41:38;;;;;;;;;;;;;;;;;;4988518;28;19979;-80
2023/01/31 00:44:03;;;;;;;;;;;;;;;;;;4986060;28;20143;-83
2023/01/31 00:46:29;;;;;;;;;;;;;;;;;;4999559;28;19924;-78
2023/01/31 00:48:55;;;;;;;;;;;;;;;;;;4984273;28;19945;-81
2023/01/31 00:51:21;;;;;;;;;;;;;;;;;;4999592;28;19932;-79
2023/01/31 00:53:47;;;;;;;;;;;;;;;;;;4991491;28;20640;-82
2023/01/31 00:56:13;;;;;;;;;;;;;;;;;;4999548;28;19963;-79
2023/01/31 00:58:39;;;;;;;;;;;;;;;;;;4982777;28;20012;-79
2023/01/31 01:01:05;;;;;;;;;;;;;;;;;;4964997;28;19990;-79
2023/01/31 01:03:31;;;;;;;;;;;;;;;;;;4976052;28;20382;-79
2023/01/31 01:05:57;;;;;;;;;;;;;;;;;;4992436;28;19929;-82
2023/01/31 01:08:23;;;;;;;;;;;;;;;;;;4975729;28;20283;-83
2023/01/31 01:10:49;;;;;;;;;;;;;;;;;;5010341;28;20356;-80
2023/01/31 01:13:15;;;;;;;;;;;;;;;;;;4983726;28;20698;-78
2023/01/31 01:15:40;;;;;;;;;;;;;;;;;;4963844;28;19925;-80
2023/01/31 01:18:07;;;;;;;;;;;;;;;;;;4981882;28;20704;-79
2023/01/31 01:20:33;;;;;;;;;;;;;;;;;;4982033;28;20474;-79
2023/01/31 01:22:59;;;;;;;;;;;;;;;;;;5011383;28;20027;-81
2023/01/31 01:25:25;;;;;;;;;;;;;;;;;;4983752;28;19921;-79
2023/01/31 01:27:50;;;;;;;;;;;;;;;;;;4968603;28;19940;-78
2023/01/31 01:30:16;;;;;;;;;;;;;;;;;;4965997;28;19925;-79
2023/01/31 01:32:42;;;;;;;;;;;;;;;;;;4981606;28;21353;-79
2023/01/31 01:35:09;;;;;;;;;;;;;;;;;;5008951;28;19963;-83
2023/01/31 01:37:34;;;;;;;;;;;;;;;;;;5001640;28;19968;-80
2023/01/31 01:40:00;;;;;;;;;;;;;;;;;;4980206;28;19918;-82
2023/01/31 01:42:26;;;;;;;;;;;;;;;;;;4978828;28;20067;-80
2023/01/31 01:44:52;;;;;;;;;;;;;;;;;;4977768;28;20962;-80
2023/01/31 01:47:18;;;;;;;;;;;;;;;;;;4982052;28;19928;-79
2023/01/31 01:49:44;;;;;;;;;;;;;;;;;;4993317;28;19925;-80
2023/01/31 01:52:10;;;;;;;;;;;;;;;;;;4982324;28;20380;-82
2023/01/31 01:54:36;;;;;;;;;;;;;;;;;;4984187;28;19921;-80
2023/01/31 01:57:02;;;;;;;;;;;;;;;;;;5000286;28;19931;-80
2023/01/31 01:59:28;;;;;;;;;;;;;;;;;;4994997;28;19917;-81
2023/01/31 02:01:54;;;;;;;;;;;;;;;;;;4974271;28;19929;-80
2023/01/31 02:04:20;;;;;;;;;;;;;;;;;;4988073;28;19932;-83
2023/01/31 02:06:46;;;;;;;;;;;;;;;;;;4988185;28;19921;-80
2023/01/31 02:09:12;;;;;;;;;;;;;;;;;;4969064;28;19917;-80
2023/01/31 02:11:38;;;;;;;;;;;;;;;;;;4993748;28;19921;-82
2023/01/31 02:14:04;;;;;;;;;;;;;;;;;;4987926;28;19967;-81
2023/01/31 02:16:30;;;;;;;;;;;;;;;;;;4973711;28;19925;-81
2023/01/31 02:18:56;;;;;;;;;;;;;;;;;;4985607;28;19917;-79
2023/01/31 02:21:22;;;;;;;;;;;;;;;;;;4997338;28;19968;-80
2023/01/31 02:23:48;;;;;;;;;;;;;;;;;;4986382;28;20054;-81
2023/01/31 02:26:14;;;;;;;;;;;;;;;;;;4981854;28;20012;-83
2023/01/31 02:28:40;;;;;;;;;;;;;;;;;;4990391;28;19924;-82
2023/01/31 02:31:06;;;;;;;;;;;;;;;;;;5017853;28;19917;-79
2023/01/31 02:33:31;;;;;;;;;;;;;;;;;;5004706;28;19945;-79
2023/01/31 02:35:58;;;;;;;;;;;;;;;;;;4986304;28;20063;-79
2023/01/31 02:38:23;;;;;;;;;;;;;;;;;;4981118;28;19925;-79
2023/01/31 02:40:49;;;;;;;;;;;;;;;;;;4982214;28;19925;-81
2023/01/31 02:43:15;;;;;;;;;;;;;;;;;;4998882;28;19916;-80
2023/01/31 02:45:41;;;;;;;;;;;;;;;;;;4989745;28;19961;-81
2023/01/31 02:48:07;;;;;;;;;;;;;;;;;;5000143;28;19926;-83
2023/01/31 02:50:33;;;;;;;;;;;;;;;;;;4990640;28;19927;-81
2023/01/31 02:52:59;;;;;;;;;;;;;;;;;;5001346;28;20379;-79
2023/01/31 02:58:10;;;;;;;;;;;;;;;;;;4988977;28;20310;-82
2023/01/31 03:00:36;;;;;;;;;;;;;;;;;;4975993;28;19929;-81
2023/01/31 03:03:02;;;;;;;;;;;;;;;;;;5001814;28;19918;-81
2023/01/31 03:05:28;;;;;;;;;;;;;;;;;;4985397;28;19961;-81
2023/01/31 03:07:54;;;;;;;;;;;;;;;;;;5004332;28;20045;-82
2023/01/31 03:10:20;;;;;;;;;;;;;;;;;;4985894;28;20361;-81
2023/01/31 03:12:46;;;;;;;;;;;;;;;;;;4974206;28;20322;-82
2023/01/31 03:15:12;;;;;;;;;;;;;;;;;;4986278;28;20330;-80
2023/01/31 03:17:38;;;;;;;;;;;;;;;;;;4998217;28;19928;-82
2023/01/31 03:20:04;;;;;;;;;;;;;;;;;;4996708;28;20010;-80
2023/01/31 03:22:30;;;;;;;;;;;;;;;;;;4985157;28;20173;-81
2023/01/31 03:24:56;;;;;;;;;;;;;;;;;;4980557;28;20422;-81
2023/01/31 03:27:22;;;;;;;;;;;;;;;;;;4985129;28;19925;-82
2023/01/31 03:29:48;;;;;;;;;;;;;;;;;;4969197;28;19921;-81
2023/01/31 03:32:13;;;;;;;;;;;;;;;;;;4987462;28;19979;-83
2023/01/31 03:34:39;;;;;;;;;;;;;;;;;;4999166;28;20280;-81
2023/01/31 03:37:05;;;;;;;;;;;;;;;;;;4983992;28;19965;-82
2023/01/31 03:39:31;;;;;;;;;;;;;;;;;;4984633;28;19947;-82
2023/01/31 03:41:57;;;;;;;;;;;;;;;;;;4989389;28;19925;-84
2023/01/31 03:44:23;;;;;;;;;;;;;;;;;;5001048;28;19928;-83
2023/01/31 03:46:49;;;;;;;;;;;;;;;;;;5003025;28;20008;-84
2023/01/31 03:49:15;;;;;;;;;;;;;;;;;;5014431;28;19921;-83
2023/01/31 03:51:41;;;;;;;;;;;;;;;;;;4970115;28;19925;-84
2023/01/31 03:54:07;;;;;;;;;;;;;;;;;;5003263;28;20000;-84
2023/01/31 03:56:33;;;;;;;;;;;;;;;;;;4987713;28;22100;-83
2023/01/31 03:58:59;;;;;;;;;;;;;;;;;;4984762;28;19943;-85
2023/01/31 04:01:25;;;;;;;;;;;;;;;;;;4985226;28;19974;-82
2023/01/31 04:03:51;;;;;;;;;;;;;;;;;;4973152;28;19925;-82
2023/01/31 04:06:17;;;;;;;;;;;;;;;;;;5000035;28;19928;-83
2023/01/31 04:08:43;;;;;;;;;;;;;;;;;;5002449;28;19928;-82
2023/01/31 04:11:08;;;;;;;;;;;;;;;;;;4988673;28;20291;-82
2023/01/31 04:13:34;;;;;;;;;;;;;;;;;;4990177;28;19924;-84
2023/01/31 04:16:00;;;;;;;;;;;;;;;;;;4970139;28;19924;-82
2023/01/31 04:18:26;;;;;;;;;;;;;;;;;;5005275;28;20505;-85
2023/01/31 04:20:52;;;;;;;;;;;;;;;;;;5003627;28;19964;-83
2023/01/31 04:23:18;;;;;;;;;;;;;;;;;;4986636;28;20059;-87
2023/01/31 04:25:44;;;;;;;;;;;;;;;;;;4999215;28;19921;-81
2023/01/31 04:28:10;;;;;;;;;;;;;;;;;;5001121;28;19922;-84
2023/01/31 04:30:36;;;;;;;;;;;;;;;;;;5006492;28;19921;-82
2023/01/31 04:33:02;;;;;;;;;;;;;;;;;;4977671;28;19925;-83
2023/01/31 04:35:28;;;;;;;;;;;;;;;;;;4990836;28;20287;-82
2023/01/31 04:37:54;;;;;;;;;;;;;;;;;;5004406;28;19925;-81
2023/01/31 04:40:20;;;;;;;;;;;;;;;;;;5018836;28;19991;-82
2023/01/31 04:42:46;;;;;;;;;;;;;;;;;;4988021;28;19918;-83
2023/01/31 04:45:12;;;;;;;;;;;;;;;;;;4992212;28;20359;-83
2023/01/31 04:47:38;;;;;;;;;;;;;;;;;;4987950;28;19921;-82
2023/01/31 04:50:04;;;;;;;;;;;;;;;;;;5006685;28;19952;-83
2023/01/31 04:52:29;;;;;;;;;;;;;;;;;;4993471;28;20012;-87
2023/01/31 04:54:55;;;;;;;;;;;;;;;;;;5008303;28;20389;-83
2023/01/31 04:57:21;;;;;;;;;;;;;;;;;;5006731;28;19925;-83
2023/01/31 04:59:49;;;;;;;;;;;;;;;;;;5025248;23;19964;-81
2023/01/31 05:02:15;;;;;;;;;;;;;;;;;;4999794;28;19978;-80
2023/01/31 05:04:40;;;;;;;;;;;;;;;;;;5002244;28;20311;-80
2023/01/31 05:07:06;;;;;;;;;;;;;;;;;;5028896;28;19920;-79
2023/01/31 05:09:32;;;;;;;;;;;;;;;;;;5012590;28;19925;-79
2023/01/31 05:11:58;;;;;;;;;;;;;;;;;;4998294;28;19924;-82
2023/01/31 05:14:24;;;;;;;;;;;;;;;;;;5011574;28;20391;-80
2023/01/31 05:16:50;;;;;;;;;;;;;;;;;;5007517;28;19917;-79
2023/01/31 05:19:16;;;;;;;;;;;;;;;;;;4994986;28;19943;-80
2023/01/31 05:21:54;;;;;;;;;;;;;;;;;;5001578;28;21182;-82
2023/01/31 05:24:20;;;;;;;;;;;;;;;;;;4999549;28;20295;-81
2023/01/31 05:26:46;;;;;;;;;;;;;;;;;;5008073;28;19929;-80
2023/01/31 05:29:12;;;;;;;;;;;;;;;;;;5009200;28;19924;-77
2023/01/31 05:31:38;;;;;;;;;;;;;;;;;;5023715;28;20468;-81
2023/01/31 05:34:04;;;;;;;;;;;;;;;;;;5010543;28;20032;-80
2023/01/31 05:36:30;;;;;;;;;;;;;;;;;;5005616;28;19931;-82
2023/01/31 05:38:56;;;;;;;;;;;;;;;;;;4993993;28;19936;-81
2023/01/31 05:41:22;;;;;;;;;;;;;;;;;;4996002;28;19986;-79
2023/01/31 05:43:48;;;;;;;;;;;;;;;;;;4991404;28;19924;-81
2023/01/31 05:46:14;;;;;;;;;;;;;;;;;;4986225;28;19979;-80
2023/01/31 05:48:39;;;;;;;;;;;;;;;;;;4991999;28;20391;-83
2023/01/31 05:51:05;;;;;;;;;;;;;;;;;;4991354;28;20055;-79
2023/01/31 05:53:31;;;;;;;;;;;;;;;;;;4999441;28;20326;-82
2023/01/31 05:55:57;;;;;;;;;;;;;;;;;;4999930;28;20030;-81
2023/01/31 05:58:23;;;;;;;;;;;;;;;;;;5001974;28;20353;-79
2023/01/31 06:00:49;;;;;;;;;;;;;;;;;;5013339;28;22674;-83
2023/01/31 06:03:16;;;;;;;;;;;;;;;;;;5007515;28;19920;-79
2023/01/31 06:05:42;;;;;;;;;;;;;;;;;;5012309;28;19967;-81
2023/01/31 06:08:07;;;;;;;;;;;;;;;;;;4997350;28;20448;-81
2023/01/31 06:10:33;;;;;;;;;;;;;;;;;;5004388;28;20314;-80
2023/01/31 06:12:59;;;;;;;;;;;;;;;;;;4987480;28;20001;-77
2023/01/31 06:15:25;;;;;;;;;;;;;;;;;;5008093;28;19920;-78
2023/01/31 06:17:51;;;;;;;;;;;;;;;;;;5014564;28;20383;-82
2023/01/31 06:20:17;;;;;;;;;;;;;;;;;;5003040;28;19917;-79
2023/01/31 06:22:43;;;;;;;;;;;;;;;;;;5007827;28;19986;-79
2023/01/31 06:25:09;;;;;;;;;;;;;;;;;;4988713;28;20230;-81
2023/01/31 06:27:35;;;;;;;;;;;;;;;;;;4992965;28;19956;-78
2023/01/31 06:30:01;;;;;;;;;;;;;;;;;;5008602;28;19962;-79
2023/01/31 06:32:27;;;;;;;;;;;;;;;;;;4999036;28;19921;-77
2023/01/31 06:34:53;;;;;;;;;;;;;;;;;;5017549;28;19931;-76
2023/01/31 06:37:21;;;;;;;;;;;;;;;;;;5014032;28;20366;-80
2023/01/31 06:39:47;;;;;;;;;;;;;;;;;;4995779;28;19968;-80
2023/01/31 06:42:13;;;;;;;;;;;;;;;;;;4999813;28;19940;-79
2023/01/31 06:44:39;;;;;;;;;;;;;;;;;;5002467;28;19928;-78
2023/01/31 06:47:05;;;;;;;;;;;;;;;;;;4997414;28;19921;-77
2023/01/31 06:49:31;;;;;;;;;;;;;;;;;;5021954;28;20003;-81
2023/01/31 06:51:57;;;;;;;;;;;;;;;;;;5020059;28;19920;-79
2023/01/31 06:54:23;;;;;;;;;;;;;;;;;;5014963;28;19928;-78
2023/01/31 06:56:48;;;;;;;;;;;;;;;;;;5002627;28;19917;-78
2023/01/31 06:59:14;;;;;;;;;;;;;;;;;;5013486;28;19916;-80
2023/01/31 07:01:40;;;;;;;;;;;;;;;;;;5005418;28;19928;-78
2023/01/31 07:04:06;;;;;;;;;;;;;;;;;;4995854;28;19917;-78
2023/01/31 07:06:35;;;;;;;;;;;;;;;;;;5022668;28;19916;-79
2023/01/31 07:09:02;;;;;;;;;;;;;;;;;;5029938;28;21315;-79
2023/01/31 07:11:28;;;;;;;;;;;;;;;;;;5018823;28;21079;-80
2023/01/31 07:13:54;;;;;;;;;;;;;;;;;;5003177;28;19971;-78
2023/01/31 07:16:21;;;;;;;;;;;;;;;;;;5007577;28;19920;-82
2023/01/31 07:18:47;;;;;;;;;;;;;;;;;;5018789;28;19924;-80
2023/01/31 07:21:13;;;;;;;;;;;;;;;;;;5018130;28;19928;-79
2023/01/31 07:23:39;;;;;;;;;;;;;;;;;;5002703;28;19928;-80
2023/01/31 07:26:05;;;;;;;;;;;;;;;;;;5004237;28;19916;-80
2023/01/31 07:28:31;;;;;;;;;;;;;;;;;;4998900;28;19978;-80
2023/01/31 07:30:57;;;;;;;;;;;;;;;;;;5016805;28;19925;-81
2023/01/31 07:33:24;;;;;;;;;;;;;;;;;;5008127;28;20375;-84
2023/01/31 07:35:49;;;;;;;;;;;;;;;;;;5001872;28;19971;-79
2023/01/31 07:38:15;;;;;;;;;;;;;;;;;;5008130;28;19942;-80
2023/01/31 07:40:41;;;;;;;;;;;;;;;;;;5008039;28;20663;-80
2023/01/31 07:43:07;;;;;;;;;;;;;;;;;;4991819;28;19927;-79
2023/01/31 07:45:33;;;;;;;;;;;;;;;;;;5000978;28;19924;-81
2023/01/31 07:47:59;;;;;;;;;;;;;;;;;;5007335;28;19932;-80
2023/01/31 07:50:26;;;;;;;;;;;;;;;;;;5010187;28;20393;-79
2023/01/31 07:52:52;;;;;;;;;;;;;;;;;;5008518;28;19936;-78
2023/01/31 07:55:18;;;;;;;;;;;;;;;;;;5018096;28;19921;-80
2023/01/31 07:57:44;;;;;;;;;;;;;;;;;;5008790;28;20677;-79
2023/01/31 08:03:31;;;;;;;;;;;;;;;;;;5013168;28;19924;-78
2023/01/31 08:05:40;;;;;;;;;;;;;;;;;;5004837;28;19920;-80
2023/01/31 08:08:09;;;;;;;;;;;;;;;;;;4992570;28;19921;-77
2023/01/31 08:10:35;;;;;;;;;;;;;;;;;;5010894;28;19978;-79
2023/01/31 08:13:01;;;;;;;;;;;;;;;;;;5013007;28;20410;-80
2023/01/31 08:15:27;;;;;;;;;;;;;;;;;;4991701;28;20355;-78
2023/01/31 08:17:53;;;;;;;;;;;;;;;;;;5018260;28;19944;-77
2023/01/31 08:20:19;;;;;;;;;;;;;;;;;;5016660;28;19978;-83
2023/01/31 08:22:45;;;;;;;;;;;;;;;;;;5004834;28;19925;-82
2023/01/31 08:25:11;;;;;;;;;;;;;;;;;;5013587;28;19921;-77
2023/01/31 08:27:37;;;;;;;;;;;;;;;;;;5019973;28;19916;-78
2023/01/31 08:30:02;;;;;;;;;;;;;;;;;;4987477;28;20483;-81
2023/01/31 08:32:28;;;;;;;;;;;;;;;;;;4984408;28;19928;-77
2023/01/31 08:34:54;;;;;;;;;;;;;;;;;;5008577;28;19924;-79
2023/01/31 08:37:20;;;;;;;;;;;;;;;;;;5014163;28;19917;-81
2023/01/31 08:39:47;;;;;;;;;;;;;;;;;;5029925;28;19921;-79
2023/01/31 08:42:13;;;;;;;;;;;;;;;;;;4995900;28;19995;-79
2023/01/31 08:44:39;;;;;;;;;;;;;;;;;;5008735;28;20608;-79
2023/01/31 08:47:05;;;;;;;;;;;;;;;;;;5002532;28;19968;-81
2023/01/31 08:49:35;;;;;;;;;;;;;;;;;;5014013;28;19964;-81
2023/01/31 08:52:01;;;;;;;;;;;;;;;;;;5001199;28;19924;-83
2023/01/31 08:54:27;;;;;;;;;;;;;;;;;;5017057;28;19931;-83
2023/01/31 08:56:52;;;;;;;;;;;;;;;;;;5013440;28;19927;-80
2023/01/31 08:59:18;;;;;;;;;;;;;;;;;;5012515;28;19925;-80
2023/01/31 09:01:45;;;;;;;;;;;;;;;;;;5007837;28;19929;-78
2023/01/31 09:04:11;;;;;;;;;;;;;;;;;;5014278;28;20446;-80
2023/01/31 09:06:37;;;;;;;;;;;;;;;;;;5004843;28;19916;-75
2023/01/31 09:09:03;;;;;;;;;;;;;;;;;;5020281;28;21871;-78
2023/01/31 09:11:29;;;;;;;;;;;;;;;;;;5009579;28;19920;-79
2023/01/31 09:13:55;;;;;;;;;;;;;;;;;;5010121;28;19920;-78
2023/01/31 09:16:21;;;;;;;;;;;;;;;;;;5030481;28;19916;-78
2023/01/31 09:18:47;;;;;;;;;;;;;;;;;;5027349;28;19925;-79
2023/01/31 09:21:13;;;;;;;;;;;;;;;;;;5026369;28;19925;-78
2023/01/31 09:23:39;;;;;;;;;;;;;;;;;;5010959;28;19920;-80
2023/01/31 09:26:04;;;;;;;;;;;;;;;;;;5040176;28;19921;-79
2023/01/31 09:28:30;;;;;;;;;;;;;;;;;;5024586;28;19956;-78
2023/01/31 09:30:56;;;;;;;;;;;;;;;;;;5009563;28;19958;-81
2023/01/31 09:33:22;;;;;;;;;;;;;;;;;;5022450;28;20531;-81
2023/01/31 09:35:48;;;;;;;;;;;;;;;;;;5019770;28;20391;-81
2023/01/31 09:38:14;;;;;;;;;;;;;;;;;;5023010;28;19924;-78
2023/01/31 09:40:40;;;;;;;;;;;;;;;;;;5004452;28;19921;-79
2023/01/31 09:43:06;;;;;;;;;;;;;;;;;;5005595;28;19924;-78
2023/01/31 09:45:32;;;;;;;;;;;;;;;;;;5027464;28;19928;-79
2023/01/31 09:47:58;;;;;;;;;;;;;;;;;;5034530;28;19920;-79
2023/01/31 09:50:24;;;;;;;;;;;;;;;;;;5031194;28;19928;-78
2023/01/31 09:52:50;;;;;;;;;;;;;;;;;;5021202;28;19939;-77
2023/01/31 09:55:16;;;;;;;;;;;;;;;;;;5012909;28;19928;-76
2023/01/31 09:57:41;;;;;;;;;;;;;;;;;;5031831;28;19931;-79
2023/01/31 10:00:08;;;;;;;;;;;;;;;;;;5030786;28;19921;-82
2023/01/31 10:02:34;;;;;;;;;;;;;;;;;;5030363;28;20023;-79
2023/01/31 10:05:00;;;;;;;;;;;;;;;;;;5022560;28;19948;-80
2023/01/31 10:07:26;;;;;;;;;;;;;;;;;;5033365;28;19952;-80
2023/01/31 10:09:52;;;;;;;;;;;;;;;;;;5034216;28;20338;-80
2023/01/31 10:12:17;;;;;;;;;;;;;;;;;;5014977;28;19920;-81
2023/01/31 10:14:45;;;;;;;;;;;;;;;;;;5017342;28;19935;-78
2023/01/31 10:17:11;;;;;;;;;;;;;;;;;;5036711;28;19964;-79
2023/01/31 10:19:37;;;;;;;;;;;;;;;;;;5013941;28;19917;-83
2023/01/31 10:22:03;;;;;;;;;;;;;;;;;;5035105;28;19988;-82
2023/01/31 10:24:29;;;;;;;;;;;;;;;;;;5037280;28;19943;-79
2023/01/31 10:26:55;;;;;;;;;;;;;;;;;;5035907;28;19924;-82
2023/01/31 10:29:21;;;;;;;;;;;;;;;;;;5021408;28;19917;-78
2023/01/31 10:31:47;;;;;;;;;;;;;;;;;;5034710;28;19960;-80
2023/01/31 10:34:13;;;;;;;;;;;;;;;;;;5035676;28;19921;-77
2023/01/31 10:36:39;;;;;;;;;;;;;;;;;;5037117;28;20249;-79
2023/01/31 10:39:05;;;;;;;;;;;;;;;;;;5034188;28;19917;-84
2023/01/31 10:41:31;;;;;;;;;;;;;;;;;;5055403;28;19924;-78
2023/01/31 10:43:57;;;;;;;;;;;;;;;;;;5037183;28;19917;-80
2023/01/31 10:46:23;;;;;;;;;;;;;;;;;;5023039;28;20290;-81
2023/01/31 10:48:49;;;;;;;;;;;;;;;;;;5035817;28;20001;-78
2023/01/31 10:51:16;;;;;;;;;;;;;;;;;;5024273;28;20001;-84
2023/01/31 10:53:42;;;;;;;;;;;;;;;;;;5035075;28;19951;-81
2023/01/31 10:56:08;;;;;;;;;;;;;;;;;;5026187;28;19921;-82
2023/01/31 10:58:33;;;;;;;;;;;;;;;;;;5040114;28;19917;-79
2023/01/31 11:01:00;;;;;;;;;;;;;;;;;;5009553;23;20491;-84
2023/01/31 11:03:26;;;;;;;;;;;;;;;;;;4988226;28;19925;-81
2023/01/31 11:05:52;;;;;;;;;;;;;;;;;;4992122;28;20051;-84
2023/01/31 11:08:18;;;;;;;;;;;;;;;;;;5013759;28;20066;-84
2023/01/31 11:10:44;;;;;;;;;;;;;;;;;;4981457;28;19925;-84
2023/01/31 11:13:10;;;;;;;;;;;;;;;;;;4990162;28;20039;-82
2023/01/31 11:15:36;;;;;;;;;;;;;;;;;;4996505;28;19964;-83
2023/01/31 11:18:02;;;;;;;;;;;;;;;;;;4993360;28;19921;-83
2023/01/31 11:20:27;;;;;;;;;;;;;;;;;;4986700;28;19921;-84
2023/01/31 11:22:53;;;;;;;;;;;;;;;;;;4988409;28;19935;-84
2023/01/31 11:25:22;;;;;;;;;;;;;;;;;;4984993;28;19969;-84
2023/01/31 11:27:48;;;;;;;;;;;;;;;;;;4994919;28;19923;-84
2023/01/31 11:30:14;;;;;;;;;;;;;;;;;;4977240;28;19973;-83
2023/01/31 11:32:39;;;;;;;;;;;;;;;;;;4986457;28;19933;-85
2023/01/31 11:35:05;;;;;;;;;;;;;;;;;;4999765;28;20185;-85
2023/01/31 11:37:31;;;;;;;;;;;;;;;;;;4993890;28;20326;-83
2023/01/31 11:39:57;;;;;;;;;;;;;;;;;;4985426;28;20320;-83
2023/01/31 11:42:23;;;;;;;;;;;;;;;;;;4985724;28;20466;-86
2023/01/31 11:44:49;;;;;;;;;;;;;;;;;;5000425;28;19991;-81
2023/01/31 11:47:15;;;;;;;;;;;;;;;;;;4976816;28;19921;-83
2023/01/31 11:49:41;;;;;;;;;;;;;;;;;;4987996;28;19921;-83
2023/01/31 11:52:07;;;;;;;;;;;;;;;;;;4990359;28;19933;-86
2023/01/31 11:54:33;;;;;;;;;;;;;;;;;;4984899;28;19926;-84
2023/01/31 11:56:59;;;;;;;;;;;;;;;;;;4987467;28;19921;-82
2023/01/31 11:59:25;;;;;;;;;;;;;;;;;;4993165;28;19921;-84
2023/01/31 12:01:51;;;;;;;;;;;;;;;;;;4986594;28;19928;-84
2023/01/31 12:04:17;;;;;;;;;;;;;;;;;;4985923;28;19929;-85
2023/01/31 12:06:43;;;;;;;;;;;;;;;;;;4992784;28;19990;-85
2023/01/31 12:09:09;;;;;;;;;;;;;;;;;;4994429;28;19952;-83
2023/01/31 12:11:35;;;;;;;;;;;;;;;;;;5007862;28;19917;-84
2023/01/31 12:14:01;;;;;;;;;;;;;;;;;;4995989;28;19918;-82
2023/01/31 12:16:27;;;;;;;;;;;;;;;;;;4994390;28;20403;-83
2023/01/31 12:18:52;;;;;;;;;;;;;;;;;;4988831;28;19921;-84
2023/01/31 12:21:18;;;;;;;;;;;;;;;;;;4996541;28;19928;-83
2023/01/31 12:23:44;;;;;;;;;;;;;;;;;;5001187;28;20383;-84
2023/01/31 12:26:10;;;;;;;;;;;;;;;;;;4998395;28;19984;-85
2023/01/31 12:28:36;;;;;;;;;;;;;;;;;;4991614;28;20465;-84
2023/01/31 12:31:05;;;;;;;;;;;;;;;;;;5010895;28;19917;-85
2023/01/31 12:33:31;;;;;;;;;;;;;;;;;;4987055;28;19921;-81
2023/01/31 12:35:57;;;;;;;;;;;;;;;;;;4997722;28;19921;-83
2023/01/31 12:38:23;;;;;;;;;;;;;;;;;;5005074;28;19921;-84
2023/01/31 12:40:49;;;;;;;;;;;;;;;;;;5009355;28;19973;-83
2023/01/31 12:43:15;;;;;;;;;;;;;;;;;;4980037;28;19985;-85
2023/01/31 12:45:41;;;;;;;;;;;;;;;;;;4998865;28;20283;-84
2023/01/31 12:48:07;;;;;;;;;;;;;;;;;;4993798;28;19928;-85
2023/01/31 12:50:32;;;;;;;;;;;;;;;;;;4999892;28;19928;-82
2023/01/31 12:52:58;;;;;;;;;;;;;;;;;;4998641;28;21385;-84
2023/01/31 12:55:24;;;;;;;;;;;;;;;;;;4996043;28;19924;-83
2023/01/31 12:57:50;;;;;;;;;;;;;;;;;;4999836;28;19917;-83
2023/01/31 13:00:19;;;;;;;;;;;;;;;;;;4999202;28;19952;-80
2023/01/31 13:02:45;;;;;;;;;;;;;;;;;;4981033;28;19917;-82
2023/01/31 13:05:11;;;;;;;;;;;;;;;;;;4983682;28;20323;-83
2023/01/31 13:07:37;;;;;;;;;;;;;;;;;;4994054;28;19932;-81
2023/01/31 13:10:03;;;;;;;;;;;;;;;;;;5008804;28;19921;-84
2023/01/31 13:12:29;;;;;;;;;;;;;;;;;;4998613;28;19929;-82
2023/01/31 13:14:55;;;;;;;;;;;;;;;;;;5001651;28;19936;-83
2023/01/31 13:17:21;;;;;;;;;;;;;;;;;;5006900;28;19917;-84
2023/01/31 13:19:47;;;;;;;;;;;;;;;;;;4996481;28;19917;-83
2023/01/31 13:22:16;;;;;;;;;;;;;;;;;;5015014;28;19921;-83
2023/01/31 13:24:41;;;;;;;;;;;;;;;;;;4999566;28;19925;-85
2023/01/31 13:27:07;;;;;;;;;;;;;;;;;;4998522;28;20267;-83
2023/01/31 13:29:33;;;;;;;;;;;;;;;;;;4993694;28;20358;-83
2023/01/31 13:31:59;;;;;;;;;;;;;;;;;;4991847;28;19928;-83
2023/01/31 13:34:25;;;;;;;;;;;;;;;;;;4988794;28;20055;-84
2023/01/31 13:36:51;;;;;;;;;;;;;;;;;;4984611;28;19921;-83
2023/01/31 13:39:17;;;;;;;;;;;;;;;;;;4976724;28;19918;-84
2023/01/31 13:41:43;;;;;;;;;;;;;;;;;;4995512;28;19929;-83
2023/01/31 13:44:09;;;;;;;;;;;;;;;;;;4990657;28;19948;-81
2023/01/31 13:46:35;;;;;;;;;;;;;;;;;;4987637;28;20384;-83
2023/01/31 13:49:01;;;;;;;;;;;;;;;;;;4989477;28;20020;-84
2023/01/31 13:51:27;;;;;;;;;;;;;;;;;;4990270;28;19949;-81
2023/01/31 13:53:53;;;;;;;;;;;;;;;;;;4991910;28;19943;-82
2023/01/31 13:56:18;;;;;;;;;;;;;;;;;;4993388;28;19917;-83
2023/01/31 13:58:45;;;;;;;;;;;;;;;;;;4977401;28;20303;-83
2023/01/31 14:01:13;;;;;;;;;;;;;;;;;;4986546;28;19921;-82
2023/01/31 14:03:39;;;;;;;;;;;;;;;;;;4989298;28;19933;-83
2023/01/31 14:06:05;;;;;;;;;;;;;;;;;;4990038;28;19923;-86
2023/01/31 14:08:31;;;;;;;;;;;;;;;;;;4990564;28;19925;-83
2023/01/31 14:10:57;;;;;;;;;;;;;;;;;;4991614;28;19921;-84
2023/01/31 14:13:24;;;;;;;;;;;;;;;;;;4995179;28;19922;-82
2023/01/31 14:15:50;;;;;;;;;;;;;;;;;;4990371;28;19940;-84
2023/01/31 14:18:16;;;;;;;;;;;;;;;;;;5005509;28;20549;-81
2023/01/31 14:20:42;;;;;;;;;;;;;;;;;;4988539;28;19964;-85
2023/01/31 14:23:09;;;;;;;;;;;;;;;;;;5006028;28;19925;-82
2023/01/31 14:25:35;;;;;;;;;;;;;;;;;;4989059;28;20498;-85
2023/01/31 14:28:01;;;;;;;;;;;;;;;;;;5005877;28;19985;-84
2023/01/31 14:30:27;;;;;;;;;;;;;;;;;;4988489;28;19965;-83
2023/01/31 14:32:53;;;;;;;;;;;;;;;;;;4989225;28;19953;-83
2023/01/31 14:35:19;;;;;;;;;;;;;;;;;;4990859;28;19917;-82
2023/01/31 14:37:45;;;;;;;;;;;;;;;;;;4985229;28;19972;-84
2023/01/31 14:40:11;;;;;;;;;;;;;;;;;;4977155;28;19929;-83
2023/01/31 14:42:37;;;;;;;;;;;;;;;;;;4988281;28;19917;-83
2023/01/31 14:45:03;;;;;;;;;;;;;;;;;;4988509;28;19987;-85
2023/01/31 14:47:31;;;;;;;;;;;;;;;;;;4973688;28;20475;-84
2023/01/31 14:49:57;;;;;;;;;;;;;;;;;;4991640;28;19964;-87
2023/01/31 14:52:23;;;;;;;;;;;;;;;;;;4987592;28;19925;-84
2023/01/31 14:54:49;;;;;;;;;;;;;;;;;;4987895;28;19917;-85
2023/01/31 14:57:18;;;;;;;;;;;;;;;;;;4991222;28;19917;-84
2023/01/31 14:59:44;;;;;;;;;;;;;;;;;;4991773;28;19917;-84
2023/01/31 15:02:10;;;;;;;;;;;;;;;;;;4995689;28;19923;-84
2023/01/31 15:04:48;;;;;;;;;;;;;;;;;;4993385;28;19960;-84
2023/01/31 15:07:14;;;;;;;;;;;;;;;;;;5006619;28;19952;-84
2023/01/31 15:09:40;;;;;;;;;;;;;;;;;;4968526;28;19944;-83
2023/01/31 15:12:06;;;;;;;;;;;;;;;;;;4988053;28;20099;-83
2023/01/31 15:14:36;;;;;;;;;;;;;;;;;;4990196;28;19917;-82
2023/01/31 15:17:05;;;;;;;;;;;;;;;;;;4987309;28;19941;-84
2023/01/31 15:19:33;;;;;;;;;;;;;;;;;;4986486;28;20315;-83
2023/01/31 15:21:59;;;;;;;;;;;;;;;;;;4988834;28;19925;-83
2023/01/31 15:24:24;;;;;;;;;;;;;;;;;;5005993;28;20414;-84
2023/01/31 15:26:52;;;;;;;;;;;;;;;;;;4987791;28;20356;-85
2023/01/31 15:29:18;;;;;;;;;;;;;;;;;;5011867;28;19917;-84
2023/01/31 15:31:45;;;;;;;;;;;;;;;;;;4985375;28;19940;-82
2023/01/31 15:34:11;;;;;;;;;;;;;;;;;;4984959;28;19931;-84
2023/01/31 15:36:37;;;;;;;;;;;;;;;;;;4988002;28;19917;-84
2023/01/31 15:39:03;;;;;;;;;;;;;;;;;;4986272;28;19964;-82
2023/01/31 15:41:29;;;;;;;;;;;;;;;;;;4988054;28;19921;-85
2023/01/31 15:43:55;;;;;;;;;;;;;;;;;;4987915;28;19921;-83
2023/01/31 15:46:21;;;;;;;;;;;;;;;;;;4972167;28;19921;-82
2023/01/31 15:48:47;;;;;;;;;;;;;;;;;;4985982;28;19925;-85
2023/01/31 15:51:13;;;;;;;;;;;;;;;;;;4980458;28;19921;-82
2023/01/31 15:53:39;;;;;;;;;;;;;;;;;;4995746;28;19949;-85
2023/01/31 15:56:09;;;;;;;;;;;;;;;;;;4982240;28;20019;-85
2023/01/31 15:58:35;;;;;;;;;;;;;;;;;;4985610;28;19918;-83
2023/01/31 16:01:01;;;;;;;;;;;;;;;;;;4990859;28;19936;-85
2023/01/31 16:03:27;;;;;;;;;;;;;;;;;;5001370;28;20302;-83
2023/01/31 16:05:53;;;;;;;;;;;;;;;;;;4978394;28;19925;-81
2023/01/31 16:08:19;;;;;;;;;;;;;;;;;;4983048;28;20280;-85
2023/01/31 16:10:45;;;;;;;;;;;;;;;;;;4976668;28;19921;-83
2023/01/31 16:13:14;;;;;;;;;;;;;;;;;;5009485;28;19922;-83
2023/01/31 16:15:40;;;;;;;;;;;;;;;;;;4989647;28;20387;-82
2023/01/31 16:18:08;;;;;;;;;;;;;;;;;;4996964;28;19928;-82
2023/01/31 16:20:34;;;;;;;;;;;;;;;;;;4987733;28;20147;-83
2023/01/31 16:23:00;;;;;;;;;;;;;;;;;;5009076;28;20016;-83
2023/01/31 16:25:26;;;;;;;;;;;;;;;;;;4988017;28;20021;-84
2023/01/31 16:27:54;;;;;;;;;;;;;;;;;;5001685;28;19922;-87
2023/01/31 16:30:20;;;;;;;;;;;;;;;;;;4965933;28;19917;-84
2023/01/31 16:32:50;;;;;;;;;;;;;;;;;;4983249;28;19972;-82
2023/01/31 16:35:16;;;;;;;;;;;;;;;;;;4969142;28;19925;-83
2023/01/31 16:37:42;;;;;;;;;;;;;;;;;;4959165;28;19925;-82
2023/01/31 16:40:08;;;;;;;;;;;;;;;;;;4973976;28;19928;-84
2023/01/31 16:42:38;;;;;;;;;;;;;;;;;;4996254;28;20657;-84